Syracuse Hancock International Airport
KSYR : rendu visible

Aérodrome :











RETROUVEZ-NOUS SUR...

 
LOGIN :

S'inscrire | Disclaimer

   EN    FR    IT 

 









Légende :    VFR   VFR Marginal   IFR   IFR Intensif   IFR Très Intensif
Visi : 
Plafond : 
>= 8 km
>= 3000ft
5 à 8 km
1000 à 3000 ft
1500m à 5 km
500 à 1000 ft
800 à 1500m
200 à 500 ft
< 800m
< 200 ft
Symboles :   Orages  Brouillard  Fortes neiges  Fortes précipitations  Vent > 20 kt






- Altitude de l'aérodrome : 421 ft
- Code IATA : SYR


KSYR - Syracuse Hancock International

DERNIER METAR :
  • 100654Z 19008KT 10SM -RA OVC065 09/07 A2952 RMK AO2 RAB05 SLP995 P0001 T00940067

METARs EXPIRÉS :
  • 100554Z COR 19009KT 10SM FEW035 BKN046 OVC060 10/06 A2953 RMK AO2 RAB45E54 SLP996 4/003 P0000 60002 T01000061 10100 20083 58004
  • 100454Z 20010KT 10SM BKN045 BKN060 09/06 A2954 RMK AO2 SLP000 T00940056 400940044

TAF KSYR
Valide du 10 à 06h jusqu'au 11 à 06h UTC


100537Z 1006/1106 21008KT P6SM OVC025 WS020/24035KT
TEMPO 1006/1009 4SM -RA BR
FM101200 21008KT P6SM OVC025
FM101600 27011KT P6SM -RASN OVC020
FM102200 28009KT 4SM -SHSN OVC025



MET'MAP, la Météo Aéronautique d'un coup d'oeil ! - Copyright ORBIFLY Décembre 2007 - Disclaimer

ORBIFLY MET'MAP TEAM :

Programmation & Développement : Alexandra Zaïnal
Sur une idée originale de : Baudouin d'Aumeries
Assistance à la programmation : Marc-Olivier Méhu
Soutien technique & logistique : Manuel Goepfert

Contact : metmap@orbifly.com




SOURCES & CREDITS :

   NOAA       Earth
Advisory